sensor_id;sensor_type;location;lat;lon;timestamp;P1;durP1;ratioP1;P2;durP2;ratioP2
8859;SDS011;4466;50.948;4.832;2024-02-26T00:02:16;1.57;;;0.97;;
8859;SDS011;4466;50.948;4.832;2024-02-26T00:04:42;1.60;;;1.00;;
8859;SDS011;4466;50.948;4.832;2024-02-26T00:07:07;1.17;;;0.93;;
8859;SDS011;4466;50.948;4.832;2024-02-26T00:09:33;3.17;;;1.70;;
8859;SDS011;4466;50.948;4.832;2024-02-26T00:12:04;2.10;;;1.20;;
8859;SDS011;4466;50.948;4.832;2024-02-26T00:14:30;2.30;;;1.00;;
8859;SDS011;4466;50.948;4.832;2024-02-26T00:16:56;1.93;;;1.20;;
8859;SDS011;4466;50.948;4.832;2024-02-26T00:19:21;2.57;;;0.90;;
8859;SDS011;4466;50.948;4.832;2024-02-26T00:21:47;1.43;;;0.90;;
8859;SDS011;4466;50.948;4.832;2024-02-26T00:24:13;1.23;;;0.80;;
8859;SDS011;4466;50.948;4.832;2024-02-26T00:26:39;1.13;;;0.90;;
8859;SDS011;4466;50.948;4.832;2024-02-26T00:29:04;1.43;;;1.30;;
8859;SDS011;4466;50.948;4.832;2024-02-26T00:31:30;1.63;;;0.97;;
8859;SDS011;4466;50.948;4.832;2024-02-26T00:33:56;1.90;;;1.00;;
8859;SDS011;4466;50.948;4.832;2024-02-26T00:36:22;1.77;;;0.90;;
8859;SDS011;4466;50.948;4.832;2024-02-26T00:38:47;1.67;;;0.97;;
8859;SDS011;4466;50.948;4.832;2024-02-26T00:41:19;1.50;;;0.80;;
8859;SDS011;4466;50.948;4.832;2024-02-26T00:43:45;2.13;;;1.10;;
8859;SDS011;4466;50.948;4.832;2024-02-26T00:46:11;2.20;;;1.03;;
8859;SDS011;4466;50.948;4.832;2024-02-26T00:48:37;0.97;;;0.87;;
8859;SDS011;4466;50.948;4.832;2024-02-26T00:51:03;0.90;;;0.80;;
8859;SDS011;4466;50.948;4.832;2024-02-26T00:53:32;1.80;;;0.97;;
8859;SDS011;4466;50.948;4.832;2024-02-26T00:55:58;2.10;;;0.90;;
8859;SDS011;4466;50.948;4.832;2024-02-26T00:58:24;2.10;;;0.90;;
8859;SDS011;4466;50.948;4.832;2024-02-26T01:00:50;1.53;;;0.97;;
8859;SDS011;4466;50.948;4.832;2024-02-26T01:03:17;0.77;;;0.77;;
8859;SDS011;4466;50.948;4.832;2024-02-26T01:05:42;1.53;;;0.97;;
8859;SDS011;4466;50.948;4.832;2024-02-26T01:08:08;1.87;;;0.80;;
8859;SDS011;4466;50.948;4.832;2024-02-26T01:10:34;1.40;;;0.83;;
8859;SDS011;4466;50.948;4.832;2024-02-26T01:13:00;2.20;;;0.90;;
8859;SDS011;4466;50.948;4.832;2024-02-26T01:15:26;2.97;;;0.90;;
8859;SDS011;4466;50.948;4.832;2024-02-26T01:17:52;1.37;;;0.80;;
8859;SDS011;4466;50.948;4.832;2024-02-26T01:20:17;1.57;;;0.90;;
8859;SDS011;4466;50.948;4.832;2024-02-26T01:22:43;2.97;;;1.10;;
8859;SDS011;4466;50.948;4.832;2024-02-26T01:25:09;2.00;;;0.80;;
8859;SDS011;4466;50.948;4.832;2024-02-26T01:27:35;1.20;;;0.90;;
8859;SDS011;4466;50.948;4.832;2024-02-26T01:30:04;1.10;;;0.90;;
8859;SDS011;4466;50.948;4.832;2024-02-26T01:32:31;1.30;;;0.90;;
8859;SDS011;4466;50.948;4.832;2024-02-26T01:34:57;1.70;;;1.13;;
8859;SDS011;4466;50.948;4.832;2024-02-26T01:37:23;2.37;;;0.97;;
8859;SDS011;4466;50.948;4.832;2024-02-26T01:39:48;1.57;;;0.90;;
8859;SDS011;4466;50.948;4.832;2024-02-26T01:42:15;1.17;;;0.90;;
8859;SDS011;4466;50.948;4.832;2024-02-26T01:44:41;1.27;;;1.03;;
8859;SDS011;4466;50.948;4.832;2024-02-26T01:47:07;3.00;;;1.10;;
8859;SDS011;4466;50.948;4.832;2024-02-26T01:49:36;0.93;;;0.70;;
8859;SDS011;4466;50.948;4.832;2024-02-26T01:52:03;1.70;;;1.00;;
8859;SDS011;4466;50.948;4.832;2024-02-26T01:54:31;1.83;;;1.07;;
8859;SDS011;4466;50.948;4.832;2024-02-26T01:56:59;1.83;;;0.87;;
8859;SDS011;4466;50.948;4.832;2024-02-26T01:59:25;1.40;;;0.90;;
8859;SDS011;4466;50.948;4.832;2024-02-26T02:01:52;0.87;;;0.80;;
8859;SDS011;4466;50.948;4.832;2024-02-26T02:04:20;1.37;;;1.00;;
8859;SDS011;4466;50.948;4.832;2024-02-26T02:06:48;1.73;;;0.83;;
8859;SDS011;4466;50.948;4.832;2024-02-26T02:09:14;1.50;;;1.03;;
8859;SDS011;4466;50.948;4.832;2024-02-26T02:11:40;3.20;;;1.03;;
8859;SDS011;4466;50.948;4.832;2024-02-26T02:14:06;2.03;;;1.20;;
8859;SDS011;4466;50.948;4.832;2024-02-26T02:16:31;1.57;;;0.90;;
8859;SDS011;4466;50.948;4.832;2024-02-26T02:18:58;1.33;;;0.93;;
8859;SDS011;4466;50.948;4.832;2024-02-26T02:21:23;1.90;;;1.00;;
8859;SDS011;4466;50.948;4.832;2024-02-26T02:23:49;1.33;;;0.90;;
8859;SDS011;4466;50.948;4.832;2024-02-26T02:26:15;2.57;;;1.07;;
8859;SDS011;4466;50.948;4.832;2024-02-26T02:28:41;1.53;;;1.10;;
8859;SDS011;4466;50.948;4.832;2024-02-26T02:31:07;1.47;;;1.00;;
8859;SDS011;4466;50.948;4.832;2024-02-26T02:33:34;2.23;;;1.10;;
8859;SDS011;4466;50.948;4.832;2024-02-26T02:35:59;1.80;;;1.00;;
8859;SDS011;4466;50.948;4.832;2024-02-26T02:38:25;2.17;;;1.13;;
8859;SDS011;4466;50.948;4.832;2024-02-26T02:40:52;2.47;;;1.00;;
8859;SDS011;4466;50.948;4.832;2024-02-26T02:43:18;1.70;;;1.03;;
8859;SDS011;4466;50.948;4.832;2024-02-26T02:45:43;1.80;;;1.00;;
8859;SDS011;4466;50.948;4.832;2024-02-26T02:48:10;2.23;;;1.17;;
8859;SDS011;4466;50.948;4.832;2024-02-26T02:50:36;3.80;;;0.93;;
8859;SDS011;4466;50.948;4.832;2024-02-26T02:53:02;1.37;;;0.90;;
8859;SDS011;4466;50.948;4.832;2024-02-26T02:55:27;1.53;;;0.87;;
8859;SDS011;4466;50.948;4.832;2024-02-26T02:57:53;1.23;;;0.90;;
8859;SDS011;4466;50.948;4.832;2024-02-26T03:00:19;0.70;;;0.63;;
8859;SDS011;4466;50.948;4.832;2024-02-26T03:02:44;1.50;;;0.80;;
8859;SDS011;4466;50.948;4.832;2024-02-26T03:05:11;3.10;;;1.27;;
8859;SDS011;4466;50.948;4.832;2024-02-26T03:07:37;2.40;;;1.07;;
8859;SDS011;4466;50.948;4.832;2024-02-26T03:10:02;2.50;;;0.83;;
8859;SDS011;4466;50.948;4.832;2024-02-26T03:12:29;1.30;;;1.00;;
8859;SDS011;4466;50.948;4.832;2024-02-26T03:14:55;2.50;;;1.17;;
8859;SDS011;4466;50.948;4.832;2024-02-26T03:17:21;1.80;;;1.27;;
8859;SDS011;4466;50.948;4.832;2024-02-26T03:19:49;2.73;;;1.13;;
8859;SDS011;4466;50.948;4.832;2024-02-26T03:22:18;1.83;;;1.30;;
8859;SDS011;4466;50.948;4.832;2024-02-26T03:24:44;2.97;;;1.23;;
8859;SDS011;4466;50.948;4.832;2024-02-26T03:27:09;2.43;;;1.17;;
8859;SDS011;4466;50.948;4.832;2024-02-26T03:29:36;1.87;;;1.40;;
8859;SDS011;4466;50.948;4.832;2024-02-26T03:32:02;2.00;;;1.37;;
8859;SDS011;4466;50.948;4.832;2024-02-26T03:34:28;3.63;;;1.60;;
8859;SDS011;4466;50.948;4.832;2024-02-26T03:36:55;1.67;;;1.40;;
8859;SDS011;4466;50.948;4.832;2024-02-26T03:39:21;2.67;;;1.43;;
8859;SDS011;4466;50.948;4.832;2024-02-26T03:41:47;2.10;;;1.60;;
8859;SDS011;4466;50.948;4.832;2024-02-26T03:44:13;3.40;;;1.57;;
8859;SDS011;4466;50.948;4.832;2024-02-26T03:46:40;4.83;;;1.60;;
8859;SDS011;4466;50.948;4.832;2024-02-26T03:49:07;2.10;;;1.40;;
8859;SDS011;4466;50.948;4.832;2024-02-26T03:51:33;2.73;;;1.43;;
8859;SDS011;4466;50.948;4.832;2024-02-26T03:53:59;2.00;;;1.30;;
8859;SDS011;4466;50.948;4.832;2024-02-26T03:56:25;2.00;;;1.40;;
8859;SDS011;4466;50.948;4.832;2024-02-26T03:58:51;1.80;;;1.37;;
8859;SDS011;4466;50.948;4.832;2024-02-26T04:01:17;2.63;;;1.70;;
8859;SDS011;4466;50.948;4.832;2024-02-26T04:03:43;1.60;;;1.23;;
8859;SDS011;4466;50.948;4.832;2024-02-26T04:06:09;2.07;;;1.60;;
8859;SDS011;4466;50.948;4.832;2024-02-26T04:08:44;2.10;;;1.67;;
8859;SDS011;4466;50.948;4.832;2024-02-26T04:11:10;2.30;;;1.70;;
8859;SDS011;4466;50.948;4.832;2024-02-26T04:13:36;4.10;;;1.50;;
8859;SDS011;4466;50.948;4.832;2024-02-26T04:16:05;2.03;;;1.50;;
8859;SDS011;4466;50.948;4.832;2024-02-26T04:18:31;1.67;;;1.40;;
8859;SDS011;4466;50.948;4.832;2024-02-26T04:20:57;1.80;;;1.40;;
8859;SDS011;4466;50.948;4.832;2024-02-26T04:23:23;2.13;;;1.63;;
8859;SDS011;4466;50.948;4.832;2024-02-26T04:25:49;1.90;;;1.50;;
8859;SDS011;4466;50.948;4.832;2024-02-26T04:28:15;3.47;;;1.60;;
8859;SDS011;4466;50.948;4.832;2024-02-26T04:30:41;2.40;;;1.80;;
8859;SDS011;4466;50.948;4.832;2024-02-26T04:33:07;2.27;;;1.80;;
8859;SDS011;4466;50.948;4.832;2024-02-26T04:35:32;2.33;;;1.80;;
8859;SDS011;4466;50.948;4.832;2024-02-26T04:38:00;3.77;;;1.80;;
8859;SDS011;4466;50.948;4.832;2024-02-26T04:40:26;3.20;;;1.90;;
8859;SDS011;4466;50.948;4.832;2024-02-26T04:42:51;3.07;;;1.80;;
8859;SDS011;4466;50.948;4.832;2024-02-26T04:45:17;2.77;;;1.63;;
8859;SDS011;4466;50.948;4.832;2024-02-26T04:47:42;2.20;;;2.00;;
8859;SDS011;4466;50.948;4.832;2024-02-26T04:50:08;2.13;;;1.90;;
8859;SDS011;4466;50.948;4.832;2024-02-26T04:52:34;3.57;;;1.90;;
8859;SDS011;4466;50.948;4.832;2024-02-26T04:55:00;3.63;;;2.03;;
8859;SDS011;4466;50.948;4.832;2024-02-26T04:57:26;3.07;;;2.43;;
8859;SDS011;4466;50.948;4.832;2024-02-26T04:59:51;2.80;;;2.20;;
8859;SDS011;4466;50.948;4.832;2024-02-26T05:02:17;3.97;;;2.70;;
8859;SDS011;4466;50.948;4.832;2024-02-26T05:04:43;4.37;;;3.63;;
8859;SDS011;4466;50.948;4.832;2024-02-26T05:07:09;4.53;;;3.57;;
8859;SDS011;4466;50.948;4.832;2024-02-26T05:09:35;5.07;;;4.00;;
8859;SDS011;4466;50.948;4.832;2024-02-26T05:12:00;4.20;;;3.80;;
8859;SDS011;4466;50.948;4.832;2024-02-26T05:14:26;7.10;;;4.60;;
8859;SDS011;4466;50.948;4.832;2024-02-26T05:16:52;7.60;;;4.10;;
8859;SDS011;4466;50.948;4.832;2024-02-26T05:19:18;5.53;;;4.40;;
8859;SDS011;4466;50.948;4.832;2024-02-26T05:21:43;6.17;;;4.50;;
8859;SDS011;4466;50.948;4.832;2024-02-26T05:24:09;7.17;;;5.03;;
8859;SDS011;4466;50.948;4.832;2024-02-26T05:26:35;6.37;;;4.67;;
8859;SDS011;4466;50.948;4.832;2024-02-26T05:29:01;8.13;;;4.73;;
8859;SDS011;4466;50.948;4.832;2024-02-26T05:31:28;6.77;;;4.97;;
8859;SDS011;4466;50.948;4.832;2024-02-26T05:33:54;6.97;;;4.20;;
8859;SDS011;4466;50.948;4.832;2024-02-26T05:36:23;6.53;;;4.40;;
8859;SDS011;4466;50.948;4.832;2024-02-26T05:38:49;5.23;;;4.43;;
8859;SDS011;4466;50.948;4.832;2024-02-26T05:41:18;6.00;;;4.50;;
8859;SDS011;4466;50.948;4.832;2024-02-26T05:43:48;6.10;;;5.07;;
8859;SDS011;4466;50.948;4.832;2024-02-26T05:46:16;6.00;;;4.90;;
8859;SDS011;4466;50.948;4.832;2024-02-26T05:48:43;5.40;;;4.90;;
8859;SDS011;4466;50.948;4.832;2024-02-26T05:51:12;11.83;;;10.07;;
8859;SDS011;4466;50.948;4.832;2024-02-26T05:53:38;6.67;;;5.90;;
8859;SDS011;4466;50.948;4.832;2024-02-26T05:56:04;7.10;;;6.17;;
8859;SDS011;4466;50.948;4.832;2024-02-26T05:58:30;6.90;;;5.60;;
8859;SDS011;4466;50.948;4.832;2024-02-26T06:00:56;6.47;;;5.57;;
8859;SDS011;4466;50.948;4.832;2024-02-26T06:03:22;7.40;;;5.70;;
8859;SDS011;4466;50.948;4.832;2024-02-26T06:05:47;7.50;;;5.43;;
8859;SDS011;4466;50.948;4.832;2024-02-26T06:08:13;7.50;;;5.30;;
8859;SDS011;4466;50.948;4.832;2024-02-26T06:10:39;6.40;;;5.47;;
8859;SDS011;4466;50.948;4.832;2024-02-26T06:13:04;6.10;;;5.50;;
8859;SDS011;4466;50.948;4.832;2024-02-26T06:15:30;8.77;;;5.80;;
8859;SDS011;4466;50.948;4.832;2024-02-26T06:17:56;7.77;;;6.13;;
8859;SDS011;4466;50.948;4.832;2024-02-26T06:20:21;6.40;;;5.73;;
8859;SDS011;4466;50.948;4.832;2024-02-26T06:22:47;6.60;;;5.90;;
8859;SDS011;4466;50.948;4.832;2024-02-26T06:25:12;6.70;;;5.80;;
8859;SDS011;4466;50.948;4.832;2024-02-26T06:27:38;6.83;;;6.07;;
8859;SDS011;4466;50.948;4.832;2024-02-26T06:30:04;7.10;;;6.40;;
8859;SDS011;4466;50.948;4.832;2024-02-26T06:32:30;8.63;;;5.97;;
8859;SDS011;4466;50.948;4.832;2024-02-26T06:34:56;7.17;;;6.10;;
8859;SDS011;4466;50.948;4.832;2024-02-26T06:37:21;7.07;;;6.37;;
8859;SDS011;4466;50.948;4.832;2024-02-26T06:39:47;7.57;;;6.40;;
8859;SDS011;4466;50.948;4.832;2024-02-26T06:42:13;8.47;;;7.00;;
8859;SDS011;4466;50.948;4.832;2024-02-26T06:44:38;6.90;;;6.20;;
8859;SDS011;4466;50.948;4.832;2024-02-26T06:47:05;7.03;;;6.33;;
8859;SDS011;4466;50.948;4.832;2024-02-26T06:49:30;7.47;;;6.67;;
8859;SDS011;4466;50.948;4.832;2024-02-26T06:51:56;7.73;;;6.33;;
8859;SDS011;4466;50.948;4.832;2024-02-26T06:54:22;6.90;;;6.20;;
8859;SDS011;4466;50.948;4.832;2024-02-26T06:56:47;7.57;;;6.60;;
8859;SDS011;4466;50.948;4.832;2024-02-26T06:59:13;7.33;;;6.10;;
8859;SDS011;4466;50.948;4.832;2024-02-26T07:01:42;6.83;;;6.13;;
8859;SDS011;4466;50.948;4.832;2024-02-26T07:04:08;7.10;;;6.30;;
8859;SDS011;4466;50.948;4.832;2024-02-26T07:06:35;6.90;;;6.20;;
8859;SDS011;4466;50.948;4.832;2024-02-26T07:09:01;6.97;;;6.30;;
8859;SDS011;4466;50.948;4.832;2024-02-26T07:11:27;9.03;;;6.53;;
8859;SDS011;4466;50.948;4.832;2024-02-26T07:13:53;7.20;;;6.50;;
8859;SDS011;4466;50.948;4.832;2024-02-26T07:16:18;8.13;;;6.70;;
8859;SDS011;4466;50.948;4.832;2024-02-26T07:18:44;8.53;;;6.30;;
8859;SDS011;4466;50.948;4.832;2024-02-26T07:21:11;6.67;;;6.07;;
8859;SDS011;4466;50.948;4.832;2024-02-26T07:23:37;6.90;;;6.20;;
8859;SDS011;4466;50.948;4.832;2024-02-26T07:26:03;6.90;;;6.23;;
8859;SDS011;4466;50.948;4.832;2024-02-26T07:28:28;6.70;;;6.07;;
8859;SDS011;4466;50.948;4.832;2024-02-26T07:30:54;6.83;;;6.23;;
8859;SDS011;4466;50.948;4.832;2024-02-26T07:33:20;7.27;;;6.57;;
8859;SDS011;4466;50.948;4.832;2024-02-26T07:35:45;9.07;;;6.53;;
8859;SDS011;4466;50.948;4.832;2024-02-26T07:38:11;7.40;;;6.43;;
8859;SDS011;4466;50.948;4.832;2024-02-26T07:40:38;6.23;;;5.63;;
8859;SDS011;4466;50.948;4.832;2024-02-26T07:43:04;6.50;;;5.90;;
8859;SDS011;4466;50.948;4.832;2024-02-26T07:45:30;6.90;;;6.10;;
8859;SDS011;4466;50.948;4.832;2024-02-26T07:47:55;6.80;;;6.10;;
8859;SDS011;4466;50.948;4.832;2024-02-26T07:50:21;6.90;;;6.30;;
8859;SDS011;4466;50.948;4.832;2024-02-26T07:52:47;6.13;;;5.33;;
8859;SDS011;4466;50.948;4.832;2024-02-26T07:55:12;6.17;;;5.60;;
8859;SDS011;4466;50.948;4.832;2024-02-26T07:57:41;6.50;;;5.80;;
8859;SDS011;4466;50.948;4.832;2024-02-26T08:00:08;6.23;;;5.57;;
8859;SDS011;4466;50.948;4.832;2024-02-26T08:02:35;6.37;;;5.50;;
8859;SDS011;4466;50.948;4.832;2024-02-26T08:05:01;7.23;;;5.80;;
8859;SDS011;4466;50.948;4.832;2024-02-26T08:07:27;7.00;;;6.00;;
8859;SDS011;4466;50.948;4.832;2024-02-26T08:09:53;6.20;;;5.70;;
8859;SDS011;4466;50.948;4.832;2024-02-26T08:12:19;7.53;;;6.73;;
8859;SDS011;4466;50.948;4.832;2024-02-26T08:14:45;7.10;;;6.20;;
8859;SDS011;4466;50.948;4.832;2024-02-26T08:17:10;6.73;;;6.13;;
8859;SDS011;4466;50.948;4.832;2024-02-26T08:19:36;6.57;;;5.97;;
8859;SDS011;4466;50.948;4.832;2024-02-26T08:22:02;6.33;;;5.83;;
8859;SDS011;4466;50.948;4.832;2024-02-26T08:24:28;5.80;;;5.30;;
8859;SDS011;4466;50.948;4.832;2024-02-26T08:26:53;6.43;;;5.83;;
8859;SDS011;4466;50.948;4.832;2024-02-26T08:29:19;6.37;;;5.87;;
8859;SDS011;4466;50.948;4.832;2024-02-26T08:31:45;5.90;;;5.33;;
8859;SDS011;4466;50.948;4.832;2024-02-26T08:34:10;10.50;;;9.40;;
8859;SDS011;4466;50.948;4.832;2024-02-26T08:36:36;10.63;;;9.53;;
8859;SDS011;4466;50.948;4.832;2024-02-26T08:39:02;7.30;;;6.63;;
8859;SDS011;4466;50.948;4.832;2024-02-26T08:41:29;6.40;;;5.80;;
8859;SDS011;4466;50.948;4.832;2024-02-26T08:43:54;6.63;;;6.03;;
8859;SDS011;4466;50.948;4.832;2024-02-26T08:46:20;6.17;;;5.57;;
8859;SDS011;4466;50.948;4.832;2024-02-26T08:48:46;7.07;;;6.17;;
8859;SDS011;4466;50.948;4.832;2024-02-26T08:51:12;6.13;;;5.13;;
8859;SDS011;4466;50.948;4.832;2024-02-26T08:53:38;5.93;;;5.40;;
8859;SDS011;4466;50.948;4.832;2024-02-26T08:56:04;6.27;;;5.77;;
8859;SDS011;4466;50.948;4.832;2024-02-26T08:58:30;5.83;;;5.33;;
8859;SDS011;4466;50.948;4.832;2024-02-26T09:00:56;6.00;;;5.50;;
8859;SDS011;4466;50.948;4.832;2024-02-26T09:03:22;5.73;;;5.23;;
8859;SDS011;4466;50.948;4.832;2024-02-26T09:05:48;6.07;;;5.03;;
8859;SDS011;4466;50.948;4.832;2024-02-26T09:08:13;7.33;;;5.57;;
8859;SDS011;4466;50.948;4.832;2024-02-26T09:10:39;5.53;;;5.03;;
8859;SDS011;4466;50.948;4.832;2024-02-26T09:13:05;5.53;;;5.03;;
8859;SDS011;4466;50.948;4.832;2024-02-26T09:15:31;5.60;;;5.00;;
8859;SDS011;4466;50.948;4.832;2024-02-26T09:17:56;5.93;;;5.40;;
8859;SDS011;4466;50.948;4.832;2024-02-26T09:20:22;7.00;;;5.07;;
8859;SDS011;4466;50.948;4.832;2024-02-26T09:22:48;6.00;;;4.80;;
8859;SDS011;4466;50.948;4.832;2024-02-26T09:25:15;5.53;;;5.03;;
8859;SDS011;4466;50.948;4.832;2024-02-26T09:27:44;5.23;;;4.83;;
8859;SDS011;4466;50.948;4.832;2024-02-26T09:30:10;5.30;;;4.80;;
8859;SDS011;4466;50.948;4.832;2024-02-26T09:32:37;5.33;;;4.67;;
8859;SDS011;4466;50.948;4.832;2024-02-26T09:35:03;5.20;;;4.80;;
8859;SDS011;4466;50.948;4.832;2024-02-26T09:37:29;5.90;;;5.30;;
8859;SDS011;4466;50.948;4.832;2024-02-26T09:39:54;5.20;;;4.70;;
8859;SDS011;4466;50.948;4.832;2024-02-26T09:42:20;5.60;;;5.10;;
8859;SDS011;4466;50.948;4.832;2024-02-26T09:44:50;5.70;;;5.20;;
8859;SDS011;4466;50.948;4.832;2024-02-26T09:47:20;6.27;;;4.90;;
8859;SDS011;4466;50.948;4.832;2024-02-26T09:49:48;5.63;;;5.10;;
8859;SDS011;4466;50.948;4.832;2024-02-26T09:52:15;6.40;;;5.10;;
8859;SDS011;4466;50.948;4.832;2024-02-26T09:54:41;5.53;;;5.03;;
8859;SDS011;4466;50.948;4.832;2024-02-26T09:57:11;5.80;;;5.20;;
8859;SDS011;4466;50.948;4.832;2024-02-26T09:59:41;7.47;;;5.03;;
8859;SDS011;4466;50.948;4.832;2024-02-26T10:02:11;5.00;;;4.50;;
8859;SDS011;4466;50.948;4.832;2024-02-26T10:04:39;5.37;;;4.70;;
8859;SDS011;4466;50.948;4.832;2024-02-26T10:07:09;5.50;;;5.00;;
8859;SDS011;4466;50.948;4.832;2024-02-26T10:09:36;6.00;;;5.40;;
8859;SDS011;4466;50.948;4.832;2024-02-26T10:12:03;5.40;;;4.90;;
8859;SDS011;4466;50.948;4.832;2024-02-26T10:14:29;5.50;;;5.00;;
8859;SDS011;4466;50.948;4.832;2024-02-26T10:16:55;5.63;;;5.13;;
8859;SDS011;4466;50.948;4.832;2024-02-26T10:19:25;5.77;;;5.27;;
8859;SDS011;4466;50.948;4.832;2024-02-26T10:21:58;5.70;;;5.30;;
8859;SDS011;4466;50.948;4.832;2024-02-26T10:24:25;5.90;;;5.40;;
8859;SDS011;4466;50.948;4.832;2024-02-26T10:26:52;5.90;;;5.30;;
8859;SDS011;4466;50.948;4.832;2024-02-26T10:29:18;5.57;;;4.97;;
8859;SDS011;4466;50.948;4.832;2024-02-26T10:31:45;5.40;;;4.90;;
8859;SDS011;4466;50.948;4.832;2024-02-26T10:34:11;5.00;;;4.60;;
8859;SDS011;4466;50.948;4.832;2024-02-26T10:36:37;5.13;;;4.73;;
8859;SDS011;4466;50.948;4.832;2024-02-26T10:39:06;5.30;;;4.80;;
8859;SDS011;4466;50.948;4.832;2024-02-26T10:41:33;4.83;;;4.40;;
8859;SDS011;4466;50.948;4.832;2024-02-26T10:43:59;4.97;;;4.57;;
8859;SDS011;4466;50.948;4.832;2024-02-26T10:46:25;4.53;;;4.13;;
8859;SDS011;4466;50.948;4.832;2024-02-26T10:48:51;4.20;;;3.80;;
8859;SDS011;4466;50.948;4.832;2024-02-26T10:51:23;4.73;;;4.33;;
8859;SDS011;4466;50.948;4.832;2024-02-26T10:53:54;4.40;;;4.00;;
8859;SDS011;4466;50.948;4.832;2024-02-26T10:56:29;3.83;;;3.53;;
8859;SDS011;4466;50.948;4.832;2024-02-26T10:58:59;3.77;;;3.47;;
8859;SDS011;4466;50.948;4.832;2024-02-26T11:01:25;3.90;;;3.47;;
8859;SDS011;4466;50.948;4.832;2024-02-26T11:03:54;3.50;;;3.17;;
8859;SDS011;4466;50.948;4.832;2024-02-26T11:06:21;3.33;;;3.03;;
8859;SDS011;4466;50.948;4.832;2024-02-26T11:08:47;3.73;;;3.13;;
8859;SDS011;4466;50.948;4.832;2024-02-26T11:11:16;3.67;;;3.30;;
8859;SDS011;4466;50.948;4.832;2024-02-26T11:13:46;6.13;;;5.50;;
8859;SDS011;4466;50.948;4.832;2024-02-26T11:16:19;3.27;;;2.97;;
8859;SDS011;4466;50.948;4.832;2024-02-26T11:18:47;3.00;;;2.80;;
8859;SDS011;4466;50.948;4.832;2024-02-26T11:21:17;3.67;;;3.07;;
8859;SDS011;4466;50.948;4.832;2024-02-26T11:23:52;2.90;;;2.70;;
8859;SDS011;4466;50.948;4.832;2024-02-26T11:26:19;3.80;;;3.40;;
8859;SDS011;4466;50.948;4.832;2024-02-26T11:28:47;3.40;;;3.10;;
8859;SDS011;4466;50.948;4.832;2024-02-26T11:31:14;3.90;;;3.43;;
8859;SDS011;4466;50.948;4.832;2024-02-26T11:33:40;3.40;;;3.10;;
8859;SDS011;4466;50.948;4.832;2024-02-26T11:36:12;3.47;;;3.17;;
8859;SDS011;4466;50.948;4.832;2024-02-26T11:38:39;4.37;;;3.20;;
8859;SDS011;4466;50.948;4.832;2024-02-26T11:41:05;3.67;;;3.10;;
8859;SDS011;4466;50.948;4.832;2024-02-26T11:46:40;4.50;;;3.07;;
8859;SDS011;4466;50.948;4.832;2024-02-26T11:51:54;3.27;;;2.97;;
8859;SDS011;4466;50.948;4.832;2024-02-26T11:54:37;3.50;;;3.20;;
8859;SDS011;4466;50.948;4.832;2024-02-26T11:57:28;2.83;;;2.63;;
8859;SDS011;4466;50.948;4.832;2024-02-26T12:02:45;3.53;;;3.23;;
8859;SDS011;4466;50.948;4.832;2024-02-26T12:05:15;4.17;;;3.20;;
8859;SDS011;4466;50.948;4.832;2024-02-26T12:07:46;3.90;;;3.33;;
8859;SDS011;4466;50.948;4.832;2024-02-26T12:10:31;3.63;;;3.23;;
8859;SDS011;4466;50.948;4.832;2024-02-26T12:13:13;3.70;;;3.30;;
8859;SDS011;4466;50.948;4.832;2024-02-26T12:15:44;3.37;;;3.07;;
8859;SDS011;4466;50.948;4.832;2024-02-26T12:18:30;4.60;;;3.13;;
8859;SDS011;4466;50.948;4.832;2024-02-26T12:20:59;3.73;;;3.43;;
8859;SDS011;4466;50.948;4.832;2024-02-26T12:23:28;3.77;;;3.20;;
8859;SDS011;4466;50.948;4.832;2024-02-26T12:25:58;3.50;;;2.93;;
8859;SDS011;4466;50.948;4.832;2024-02-26T12:28:30;3.27;;;2.93;;
8859;SDS011;4466;50.948;4.832;2024-02-26T12:30:56;3.70;;;3.20;;
8859;SDS011;4466;50.948;4.832;2024-02-26T12:33:24;3.47;;;2.80;;
8859;SDS011;4466;50.948;4.832;2024-02-26T12:35:51;4.20;;;3.07;;
8859;SDS011;4466;50.948;4.832;2024-02-26T12:38:17;3.23;;;2.93;;
8859;SDS011;4466;50.948;4.832;2024-02-26T12:40:44;3.27;;;2.73;;
8859;SDS011;4466;50.948;4.832;2024-02-26T12:43:10;3.03;;;2.73;;
8859;SDS011;4466;50.948;4.832;2024-02-26T12:45:41;2.90;;;2.70;;
8859;SDS011;4466;50.948;4.832;2024-02-26T12:48:09;6.13;;;3.17;;
8859;SDS011;4466;50.948;4.832;2024-02-26T12:50:34;3.03;;;2.80;;
8859;SDS011;4466;50.948;4.832;2024-02-26T12:53:00;3.10;;;2.80;;
8859;SDS011;4466;50.948;4.832;2024-02-26T12:55:26;2.70;;;2.50;;
8859;SDS011;4466;50.948;4.832;2024-02-26T12:57:52;3.40;;;3.10;;
8859;SDS011;4466;50.948;4.832;2024-02-26T13:00:25;3.43;;;3.13;;
8859;SDS011;4466;50.948;4.832;2024-02-26T13:02:53;2.90;;;2.70;;
8859;SDS011;4466;50.948;4.832;2024-02-26T13:05:20;3.60;;;3.17;;
8859;SDS011;4466;50.948;4.832;2024-02-26T13:07:47;3.07;;;2.80;;
8859;SDS011;4466;50.948;4.832;2024-02-26T13:10:13;3.50;;;3.20;;
8859;SDS011;4466;50.948;4.832;2024-02-26T13:12:46;4.07;;;3.13;;
8859;SDS011;4466;50.948;4.832;2024-02-26T13:15:16;3.70;;;3.40;;
8859;SDS011;4466;50.948;4.832;2024-02-26T13:17:43;4.03;;;3.50;;
8859;SDS011;4466;50.948;4.832;2024-02-26T13:20:09;5.10;;;3.40;;
8859;SDS011;4466;50.948;4.832;2024-02-26T13:22:35;4.93;;;3.30;;
8859;SDS011;4466;50.948;4.832;2024-02-26T13:25:01;4.60;;;3.63;;
8859;SDS011;4466;50.948;4.832;2024-02-26T13:27:28;4.97;;;3.90;;
8859;SDS011;4466;50.948;4.832;2024-02-26T13:30:10;4.73;;;3.80;;
8859;SDS011;4466;50.948;4.832;2024-02-26T13:32:37;4.47;;;4.07;;
8859;SDS011;4466;50.948;4.832;2024-02-26T13:35:05;4.40;;;4.00;;
8859;SDS011;4466;50.948;4.832;2024-02-26T13:37:32;10.87;;;8.63;;
8859;SDS011;4466;50.948;4.832;2024-02-26T13:39:58;7.23;;;6.40;;
8859;SDS011;4466;50.948;4.832;2024-02-26T13:42:24;4.93;;;4.43;;
8859;SDS011;4466;50.948;4.832;2024-02-26T13:44:50;4.63;;;4.23;;
8859;SDS011;4466;50.948;4.832;2024-02-26T13:49:51;5.77;;;4.90;;
8859;SDS011;4466;50.948;4.832;2024-02-26T13:52:17;5.20;;;4.70;;
8859;SDS011;4466;50.948;4.832;2024-02-26T13:54:42;5.93;;;5.30;;
8859;SDS011;4466;50.948;4.832;2024-02-26T13:57:08;5.37;;;4.87;;
8859;SDS011;4466;50.948;4.832;2024-02-26T13:59:34;6.27;;;5.20;;
8859;SDS011;4466;50.948;4.832;2024-02-26T14:02:00;6.07;;;5.00;;
8859;SDS011;4466;50.948;4.832;2024-02-26T14:04:25;5.93;;;5.33;;
8859;SDS011;4466;50.948;4.832;2024-02-26T14:06:51;5.67;;;5.17;;
8859;SDS011;4466;50.948;4.832;2024-02-26T14:09:17;9.20;;;6.70;;
8859;SDS011;4466;50.948;4.832;2024-02-26T14:11:46;7.50;;;6.53;;
8859;SDS011;4466;50.948;4.832;2024-02-26T14:14:12;8.87;;;7.27;;
8859;SDS011;4466;50.948;4.832;2024-02-26T14:16:38;14.07;;;10.87;;
8859;SDS011;4466;50.948;4.832;2024-02-26T14:19:03;6.50;;;5.90;;
8859;SDS011;4466;50.948;4.832;2024-02-26T14:21:29;6.57;;;5.70;;
8859;SDS011;4466;50.948;4.832;2024-02-26T14:23:55;6.13;;;5.53;;
8859;SDS011;4466;50.948;4.832;2024-02-26T14:26:24;5.67;;;5.07;;
8859;SDS011;4466;50.948;4.832;2024-02-26T14:28:50;6.13;;;5.10;;
8859;SDS011;4466;50.948;4.832;2024-02-26T14:31:18;6.40;;;5.33;;
8859;SDS011;4466;50.948;4.832;2024-02-26T14:33:44;5.63;;;5.10;;
8859;SDS011;4466;50.948;4.832;2024-02-26T14:36:10;6.37;;;5.37;;
8859;SDS011;4466;50.948;4.832;2024-02-26T14:38:36;5.97;;;5.33;;
8859;SDS011;4466;50.948;4.832;2024-02-26T14:41:02;6.33;;;5.43;;
8859;SDS011;4466;50.948;4.832;2024-02-26T14:43:29;6.90;;;5.60;;
8859;SDS011;4466;50.948;4.832;2024-02-26T14:45:55;7.40;;;6.00;;
8859;SDS011;4466;50.948;4.832;2024-02-26T14:48:22;6.13;;;5.53;;
8859;SDS011;4466;50.948;4.832;2024-02-26T14:50:49;6.63;;;5.63;;
8859;SDS011;4466;50.948;4.832;2024-02-26T14:53:15;6.53;;;5.50;;
8859;SDS011;4466;50.948;4.832;2024-02-26T14:55:42;7.47;;;5.57;;
8859;SDS011;4466;50.948;4.832;2024-02-26T14:58:08;7.50;;;5.80;;
8859;SDS011;4466;50.948;4.832;2024-02-26T15:00:36;6.07;;;5.00;;
8859;SDS011;4466;50.948;4.832;2024-02-26T15:03:01;6.90;;;5.97;;
8859;SDS011;4466;50.948;4.832;2024-02-26T15:05:28;8.53;;;5.80;;
8859;SDS011;4466;50.948;4.832;2024-02-26T15:07:54;7.63;;;6.10;;
8859;SDS011;4466;50.948;4.832;2024-02-26T15:10:19;8.80;;;6.37;;
8859;SDS011;4466;50.948;4.832;2024-02-26T15:12:45;7.17;;;5.80;;
8859;SDS011;4466;50.948;4.832;2024-02-26T15:15:11;7.83;;;6.63;;
8859;SDS011;4466;50.948;4.832;2024-02-26T15:17:36;8.70;;;6.77;;
8859;SDS011;4466;50.948;4.832;2024-02-26T15:20:02;7.70;;;6.87;;
8859;SDS011;4466;50.948;4.832;2024-02-26T15:22:28;8.23;;;6.37;;
8859;SDS011;4466;50.948;4.832;2024-02-26T15:24:54;9.63;;;6.93;;